Time;durP1;ratioP1;P1;durP2;ratioP2;P2;SDS_P1;SDS_P2;PMS_P1;PMS_P2;Temp;Humidity;BMP_temperature;BMP_pressure;BME280_temperature;BME280_humidity;BME280_pressure;Samples;Min_cycle;Max_cycle;Signal;HPM_P1;HPM_P2
2023/03/20 00:02:08;;;;;;;34.50;17.17;;;;;;;;;;5019935;28;20457;-80
2023/03/20 00:04:41;;;;;;;35.55;18.15;;;;;;;;;;5021648;28;20419;-79
2023/03/20 00:07:11;;;;;;;37.45;17.75;;;;;;;;;;5021911;28;20435;-80
2023/03/20 00:09:44;;;;;;;40.83;17.98;;;;;;;;;;5029488;28;20427;-79
2023/03/20 00:12:14;;;;;;;39.08;18.00;;;;;;;;;;5027183;28;20425;-80
2023/03/20 00:14:47;;;;;;;38.33;18.07;;;;;;;;;;5019302;28;20891;-80
2023/03/20 00:17:21;;;;;;;39.20;17.63;;;;;;;;;;5019727;28;20430;-80
2023/03/20 00:19:54;;;;;;;38.88;18.00;;;;;;;;;;5022401;28;20427;-80
2023/03/20 00:22:22;;;;;;;40.10;17.02;;;;;;;;;;5026573;28;20438;-80
2023/03/20 00:24:55;;;;;;;37.25;16.42;;;;;;;;;;5020236;28;20427;-79
2023/03/20 00:27:27;;;;;;;34.70;17.05;;;;;;;;;;5037253;28;20899;-80
2023/03/20 00:30:01;;;;;;;36.70;17.08;;;;;;;;;;5025727;28;20455;-80
2023/03/20 00:32:30;;;;;;;34.47;15.77;;;;;;;;;;5022087;28;20422;-80
2023/03/20 00:35:13;;;;;;;34.20;15.88;;;;;;;;;;5034226;28;20440;-80
2023/03/20 00:37:41;;;;;;;34.95;15.13;;;;;;;;;;5019989;28;20423;-79
2023/03/20 00:40:14;;;;;;;32.90;15.68;;;;;;;;;;5018441;28;20416;-80
2023/03/20 00:42:49;;;;;;;33.55;15.27;;;;;;;;;;5020717;28;20430;-79
2023/03/20 00:45:18;;;;;;;36.08;16.27;;;;;;;;;;5021393;28;20411;-80
2023/03/20 00:47:47;;;;;;;35.13;15.38;;;;;;;;;;5038432;28;20430;-80
2023/03/20 00:50:17;;;;;;;37.30;16.20;;;;;;;;;;5023469;28;20418;-79
2023/03/20 00:52:50;;;;;;;35.47;16.05;;;;;;;;;;5027197;28;20431;-79
2023/03/20 00:55:24;;;;;;;37.97;16.23;;;;;;;;;;5023752;28;21011;-80
2023/03/20 00:57:58;;;;;;;35.22;15.55;;;;;;;;;;5027136;28;20915;-79
2023/03/20 01:00:29;;;;;;;37.00;16.13;;;;;;;;;;5036214;28;20418;-79
2023/03/20 01:02:59;;;;;;;34.50;15.40;;;;;;;;;;5025827;28;20897;-79
2023/03/20 01:05:32;;;;;;;38.28;16.25;;;;;;;;;;5026915;28;20457;-79
2023/03/20 01:08:00;;;;;;;37.13;15.83;;;;;;;;;;5037518;28;20897;-79
2023/03/20 01:10:33;;;;;;;37.80;16.90;;;;;;;;;;5021768;28;20891;-79
2023/03/20 01:13:01;;;;;;;37.58;16.50;;;;;;;;;;5017618;28;20429;-79
2023/03/20 01:15:31;;;;;;;36.58;16.25;;;;;;;;;;5021851;28;20420;-79
2023/03/20 01:18:05;;;;;;;41.70;16.95;;;;;;;;;;5018612;28;20422;-79
2023/03/20 01:20:33;;;;;;;34.15;15.65;;;;;;;;;;5019851;28;20906;-79
2023/03/20 01:23:06;;;;;;;41.07;16.57;;;;;;;;;;5025693;28;20431;-79
2023/03/20 01:25:38;;;;;;;39.57;16.97;;;;;;;;;;5024094;28;20524;-80
2023/03/20 01:28:13;;;;;;;39.20;16.17;;;;;;;;;;5020583;28;20419;-79
2023/03/20 01:30:41;;;;;;;37.83;16.50;;;;;;;;;;5040905;28;20431;-79
2023/03/20 01:33:16;;;;;;;41.05;17.30;;;;;;;;;;5020033;28;20534;-79
2023/03/20 01:35:53;;;;;;;40.90;17.33;;;;;;;;;;5032521;28;20420;-79
2023/03/20 01:38:23;;;;;;;42.65;16.73;;;;;;;;;;5035214;28;20416;-80
2023/03/20 01:40:59;;;;;;;39.38;16.95;;;;;;;;;;5019036;28;20423;-79
2023/03/20 01:43:34;;;;;;;42.90;17.65;;;;;;;;;;5018727;28;20428;-79
2023/03/20 01:46:17;;;;;;;41.75;17.80;;;;;;;;;;5028126;28;20419;-79
2023/03/20 01:48:58;;;;;;;40.47;18.17;;;;;;;;;;5041306;28;20432;-80
2023/03/20 01:51:32;;;;;;;46.37;19.57;;;;;;;;;;5032481;28;20428;-80
2023/03/20 01:54:07;;;;;;;50.27;18.90;;;;;;;;;;5029975;28;20426;-79
2023/03/20 01:56:51;;;;;;;46.63;20.25;;;;;;;;;;5029511;28;20435;-79
2023/03/20 01:59:22;;;;;;;45.95;20.30;;;;;;;;;;5022277;28;20810;-79
2023/03/20 02:01:55;;;;;;;49.15;20.25;;;;;;;;;;5028274;28;20419;-79
2023/03/20 02:04:26;;;;;;;55.50;21.25;;;;;;;;;;5036482;28;20436;-79
2023/03/20 02:07:00;;;;;;;53.63;21.05;;;;;;;;;;5038432;28;20422;-80
2023/03/20 02:09:56;;;;;;;52.22;21.55;;;;;;;;;;5022290;28;20431;-79
2023/03/20 02:12:39;;;;;;;52.85;21.88;;;;;;;;;;5022039;28;20422;-79
2023/03/20 02:15:15;;;;;;;57.30;22.17;;;;;;;;;;5028081;28;20430;-79
2023/03/20 02:18:02;;;;;;;54.33;22.27;;;;;;;;;;5027701;28;20804;-78
2023/03/20 02:20:47;;;;;;;58.80;23.38;;;;;;;;;;5036480;28;20916;-80
2023/03/20 02:23:32;;;;;;;60.42;22.98;;;;;;;;;;5019957;28;20429;-80
2023/03/20 02:26:12;;;;;;;58.78;23.02;;;;;;;;;;5011860;28;21007;-80
2023/03/20 02:29:07;;;;;;;58.22;23.35;;;;;;;;;;5021967;28;21137;-79
2023/03/20 02:31:48;;;;;;;55.08;22.50;;;;;;;;;;5022499;28;20920;-79
2023/03/20 02:34:43;;;;;;;56.85;23.08;;;;;;;;;;5021430;28;20424;-79
2023/03/20 02:37:33;;;;;;;55.80;22.27;;;;;;;;;;4975157;28;20449;-79
2023/03/20 02:40:10;;;;;;;55.80;21.98;;;;;;;;;;5016422;28;20415;-79
2023/03/20 02:42:46;;;;;;;56.15;22.75;;;;;;;;;;5038719;28;20424;-79
2023/03/20 02:45:23;;;;;;;51.78;21.98;;;;;;;;;;5039512;28;20429;-79
2023/03/20 02:48:11;;;;;;;54.90;21.88;;;;;;;;;;5039374;28;20420;-78
2023/03/20 02:50:44;;;;;;;53.65;22.88;;;;;;;;;;5022922;28;20435;-79
2023/03/20 02:53:18;;;;;;;53.13;21.98;;;;;;;;;;5036357;28;20440;-79
2023/03/20 02:55:54;;;;;;;52.17;20.85;;;;;;;;;;5028236;28;20430;-80
2023/03/20 02:58:30;;;;;;;50.05;21.73;;;;;;;;;;5028411;28;20419;-79
2023/03/20 03:01:05;;;;;;;52.75;22.48;;;;;;;;;;5021978;28;20423;-79
2023/03/20 03:03:37;;;;;;;55.10;21.52;;;;;;;;;;5039554;28;20416;-79
2023/03/20 03:06:07;;;;;;;52.80;22.48;;;;;;;;;;5036795;28;20943;-79
2023/03/20 03:08:44;;;;;;;53.07;21.70;;;;;;;;;;5037113;28;20422;-80
2023/03/20 03:11:18;;;;;;;49.80;21.40;;;;;;;;;;5040276;28;20422;-79
2023/03/20 03:13:48;;;;;;;51.75;20.98;;;;;;;;;;5038928;28;20419;-79
2023/03/20 03:16:17;;;;;;;50.47;21.23;;;;;;;;;;5029122;28;20443;-79
2023/03/20 03:18:46;;;;;;;50.75;21.58;;;;;;;;;;5027662;28;20421;-80
2023/03/20 03:21:21;;;;;;;48.58;21.10;;;;;;;;;;5038331;28;20417;-79
2023/03/20 03:23:54;;;;;;;48.80;20.67;;;;;;;;;;5023447;28;20423;-79
2023/03/20 03:26:26;;;;;;;49.87;21.00;;;;;;;;;;5021318;28;20471;-79
2023/03/20 03:29:01;;;;;;;46.17;20.38;;;;;;;;;;5025812;28;20787;-79
2023/03/20 03:31:37;;;;;;;52.10;22.30;;;;;;;;;;5038895;28;20438;-80
2023/03/20 03:34:12;;;;;;;50.08;21.15;;;;;;;;;;5020070;28;20740;-80
2023/03/20 03:36:48;;;;;;;53.58;21.05;;;;;;;;;;5021808;28;20463;-79
2023/03/20 03:39:25;;;;;;;46.47;19.15;;;;;;;;;;5035681;28;20434;-80
2023/03/20 03:41:56;;;;;;;50.25;19.42;;;;;;;;;;5022695;28;20416;-79
2023/03/20 03:44:29;;;;;;;39.88;15.73;;;;;;;;;;5027267;28;20875;-79
2023/03/20 03:47:06;;;;;;;36.80;15.13;;;;;;;;;;5026239;28;20423;-79
2023/03/20 03:49:36;;;;;;;37.38;13.93;;;;;;;;;;5020076;28;21074;-79
2023/03/20 03:52:11;;;;;;;35.30;14.47;;;;;;;;;;5021139;28;20425;-79
2023/03/20 03:54:47;;;;;;;36.03;14.00;;;;;;;;;;5016143;28;20664;-79
2023/03/20 03:57:36;;;;;;;29.70;13.25;;;;;;;;;;5024422;28;20427;-79
2023/03/20 04:00:16;;;;;;;32.63;13.23;;;;;;;;;;5035209;28;20419;-79
2023/03/20 04:02:46;;;;;;;31.20;12.88;;;;;;;;;;5023351;28;20417;-78
2023/03/20 04:05:20;;;;;;;28.77;11.95;;;;;;;;;;5020366;28;20458;-79
2023/03/20 04:07:55;;;;;;;33.10;13.43;;;;;;;;;;5021733;28;20423;-80
2023/03/20 04:10:27;;;;;;;31.23;11.85;;;;;;;;;;5021601;28;20451;-79
2023/03/20 04:12:56;;;;;;;28.30;12.23;;;;;;;;;;5034252;28;20438;-79
2023/03/20 04:15:26;;;;;;;29.90;12.00;;;;;;;;;;5021865;28;20429;-79
2023/03/20 04:17:54;;;;;;;30.02;11.82;;;;;;;;;;5026970;28;20433;-79
2023/03/20 04:20:22;;;;;;;26.83;12.13;;;;;;;;;;5036149;28;20427;-79
2023/03/20 04:22:55;;;;;;;27.40;11.45;;;;;;;;;;5033582;28;20441;-79
2023/03/20 04:25:24;;;;;;;28.67;11.60;;;;;;;;;;5034802;28;20795;-79
2023/03/20 04:27:54;;;;;;;25.55;11.40;;;;;;;;;;5022458;28;20430;-79
2023/03/20 04:30:35;;;;;;;25.48;11.13;;;;;;;;;;5018973;28;20415;-79
2023/03/20 04:33:08;;;;;;;27.53;10.97;;;;;;;;;;5027297;28;20420;-79
2023/03/20 04:35:58;;;;;;;28.53;11.93;;;;;;;;;;5013880;28;20424;-80
2023/03/20 04:38:32;;;;;;;29.63;12.88;;;;;;;;;;5019880;28;20421;-79
2023/03/20 04:41:05;;;;;;;23.67;10.73;;;;;;;;;;5021790;28;20442;-79
2023/03/20 04:43:39;;;;;;;23.45;11.25;;;;;;;;;;5021357;28;20419;-79
2023/03/20 04:46:13;;;;;;;26.60;11.37;;;;;;;;;;5021930;28;20427;-79
2023/03/20 04:48:41;;;;;;;28.02;12.98;;;;;;;;;;5037896;28;20896;-80
2023/03/20 04:51:14;;;;;;;31.40;15.85;;;;;;;;;;5033378;28;20423;-78
2023/03/20 04:53:50;;;;;;;31.40;13.68;;;;;;;;;;5025412;28;20425;-79
2023/03/20 04:56:23;;;;;;;25.40;11.30;;;;;;;;;;5034503;28;20898;-79
2023/03/20 04:58:52;;;;;;;23.83;10.20;;;;;;;;;;5035330;28;20419;-79
2023/03/20 05:01:26;;;;;;;24.00;9.43;;;;;;;;;;5024539;28;20414;-79
2023/03/20 05:04:01;;;;;;;20.07;8.83;;;;;;;;;;5034748;28;21288;-80
2023/03/20 05:06:32;;;;;;;20.85;8.82;;;;;;;;;;5034590;28;20422;-79
2023/03/20 05:09:00;;;;;;;18.05;8.35;;;;;;;;;;5018042;28;20435;-79
2023/03/20 05:11:30;;;;;;;21.08;8.15;;;;;;;;;;5026060;28;20741;-80
2023/03/20 05:14:06;;;;;;;20.58;8.00;;;;;;;;;;5028967;28;20429;-80
2023/03/20 05:16:40;;;;;;;17.10;8.00;;;;;;;;;;5031107;28;20779;-79
2023/03/20 05:19:22;;;;;;;20.50;9.50;;;;;;;;;;5020458;28;20422;-79
2023/03/20 05:22:20;;;;;;;19.98;9.57;;;;;;;;;;5021347;28;20779;-80
2023/03/20 05:25:12;;;;;;;19.02;9.00;;;;;;;;;;5030263;28;20426;-79
2023/03/20 05:27:49;;;;;;;18.92;8.13;;;;;;;;;;5042355;28;20420;-79
2023/03/20 05:30:38;;;;;;;19.75;8.80;;;;;;;;;;5028897;28;20423;-79
2023/03/20 05:33:32;;;;;;;20.27;9.05;;;;;;;;;;5042474;28;20787;-80
2023/03/20 05:36:25;;;;;;;22.48;10.77;;;;;;;;;;5017009;28;20435;-80
2023/03/20 05:39:26;;;;;;;21.13;10.57;;;;;;;;;;5025313;28;20484;-79
2023/03/20 05:42:15;;;;;;;20.10;9.37;;;;;;;;;;5040270;28;20427;-79
2023/03/20 05:45:07;;;;;;;18.95;8.52;;;;;;;;;;5033219;28;20784;-80
2023/03/20 05:47:55;;;;;;;19.85;8.18;;;;;;;;;;5029463;28;20965;-79
2023/03/20 05:50:36;;;;;;;17.05;8.13;;;;;;;;;;5025915;28;20444;-79
2023/03/20 05:53:35;;;;;;;20.50;8.83;;;;;;;;;;5014635;28;20428;-79
2023/03/20 05:56:27;;;;;;;22.88;9.57;;;;;;;;;;5038548;28;21154;-79
2023/03/20 05:59:32;;;;;;;21.02;9.52;;;;;;;;;;5014077;28;20441;-80
2023/03/20 06:02:31;;;;;;;19.37;8.83;;;;;;;;;;5009167;28;20458;-79
2023/03/20 06:05:18;;;;;;;17.38;7.53;;;;;;;;;;5022202;28;20443;-79
2023/03/20 06:07:53;;;;;;;17.55;7.25;;;;;;;;;;5022006;28;20416;-80
2023/03/20 06:10:21;;;;;;;15.57;7.07;;;;;;;;;;5024447;28;20423;-80
2023/03/20 06:12:54;;;;;;;14.98;7.00;;;;;;;;;;5021079;28;20426;-79
2023/03/20 06:15:28;;;;;;;15.85;7.03;;;;;;;;;;5026951;28;20428;-79
2023/03/20 06:18:10;;;;;;;16.40;7.65;;;;;;;;;;5021801;28;20417;-79
2023/03/20 06:20:43;;;;;;;17.73;8.15;;;;;;;;;;5028738;28;20503;-79
2023/03/20 06:23:17;;;;;;;15.93;7.15;;;;;;;;;;5024814;28;20422;-79
2023/03/20 06:25:45;;;;;;;20.67;7.82;;;;;;;;;;5023796;28;20797;-80
2023/03/20 06:28:14;;;;;;;16.65;7.88;;;;;;;;;;5039124;28;20415;-79
2023/03/20 06:30:52;;;;;;;15.73;7.70;;;;;;;;;;5027707;28;20424;-79
2023/03/20 06:33:25;;;;;;;16.55;7.75;;;;;;;;;;5023925;28;20425;-79
2023/03/20 06:35:59;;;;;;;17.33;8.53;;;;;;;;;;5038636;28;20422;-79
2023/03/20 06:38:34;;;;;;;16.92;8.02;;;;;;;;;;5038825;28;20421;-79
2023/03/20 06:41:12;;;;;;;17.13;8.50;;;;;;;;;;5038807;28;20937;-79
2023/03/20 06:43:41;;;;;;;18.02;8.57;;;;;;;;;;5028106;28;20430;-79
2023/03/20 06:46:10;;;;;;;16.98;7.95;;;;;;;;;;5022706;28;20415;-79
2023/03/20 06:48:43;;;;;;;18.38;8.88;;;;;;;;;;5021098;28;20436;-79
2023/03/20 06:51:16;;;;;;;18.65;8.35;;;;;;;;;;5019923;28;20855;-79
2023/03/20 06:53:53;;;;;;;16.38;8.15;;;;;;;;;;5021307;28;20763;-79
2023/03/20 06:56:27;;;;;;;15.70;8.00;;;;;;;;;;5020390;28;21382;-79
2023/03/20 06:58:55;;;;;;;17.63;8.00;;;;;;;;;;5024417;28;20431;-78
2023/03/20 07:01:28;;;;;;;16.10;7.50;;;;;;;;;;5026841;28;20424;-79
2023/03/20 07:03:56;;;;;;;16.70;7.43;;;;;;;;;;5025522;28;20426;-79
2023/03/20 07:06:27;;;;;;;16.93;7.77;;;;;;;;;;5027331;28;20417;-79
2023/03/20 07:08:57;;;;;;;14.47;7.10;;;;;;;;;;5024186;28;20477;-79
2023/03/20 07:11:30;;;;;;;14.53;7.13;;;;;;;;;;5022218;28;20423;-79
2023/03/20 07:14:03;;;;;;;14.43;6.80;;;;;;;;;;5017139;28;20436;-80
2023/03/20 07:16:45;;;;;;;14.55;7.00;;;;;;;;;;5035824;28;20420;-79
2023/03/20 07:19:18;;;;;;;17.00;7.20;;;;;;;;;;5022299;28;20412;-79
2023/03/20 07:21:50;;;;;;;13.85;6.72;;;;;;;;;;5028391;28;20427;-79
2023/03/20 07:24:24;;;;;;;14.82;7.13;;;;;;;;;;5038335;28;20415;-79
2023/03/20 07:26:52;;;;;;;14.68;7.13;;;;;;;;;;5021228;28;20746;-79
2023/03/20 07:29:26;;;;;;;14.57;7.30;;;;;;;;;;5024328;28;20786;-82
2023/03/20 07:31:59;;;;;;;16.92;7.82;;;;;;;;;;5036696;28;20424;-79
2023/03/20 07:34:36;;;;;;;18.10;8.05;;;;;;;;;;5036626;28;20428;-79
2023/03/20 07:37:09;;;;;;;16.73;8.30;;;;;;;;;;5019009;28;20836;-79
2023/03/20 07:39:39;;;;;;;16.95;8.25;;;;;;;;;;5032721;28;20457;-80
2023/03/20 07:42:24;;;;;;;19.20;8.63;;;;;;;;;;5032248;28;20425;-81
2023/03/20 07:45:10;;;;;;;15.95;8.13;;;;;;;;;;5034802;28;20442;-81
2023/03/20 07:47:38;;;;;;;15.97;8.47;;;;;;;;;;5018688;28;21027;-78
2023/03/20 07:50:11;;;;;;;15.87;7.97;;;;;;;;;;5022695;28;20440;-78
2023/03/20 07:52:39;;;;;;;15.60;7.90;;;;;;;;;;5035945;28;20428;-79
2023/03/20 07:55:14;;;;;;;17.73;9.33;;;;;;;;;;5021067;28;20419;-80
2023/03/20 07:57:48;;;;;;;17.58;7.85;;;;;;;;;;5023005;28;20438;-80
2023/03/20 08:00:21;;;;;;;14.25;7.15;;;;;;;;;;5015323;28;20440;-78
2023/03/20 08:02:55;;;;;;;15.88;7.15;;;;;;;;;;5000990;28;20453;-79
2023/03/20 08:05:23;;;;;;;13.80;6.88;;;;;;;;;;5004809;28;20414;-79
2023/03/20 08:07:56;;;;;;;13.45;6.93;;;;;;;;;;4991353;28;20435;-78
2023/03/20 08:10:30;;;;;;;13.77;6.68;;;;;;;;;;5002778;28;20436;-79
2023/03/20 08:13:03;;;;;;;12.80;6.75;;;;;;;;;;4991376;28;20432;-78
2023/03/20 08:15:36;;;;;;;14.00;6.93;;;;;;;;;;4991276;28;20437;-78
2023/03/20 08:18:09;;;;;;;14.35;7.50;;;;;;;;;;4995409;28;20980;-78
2023/03/20 08:20:42;;;;;;;12.48;6.30;;;;;;;;;;4998479;28;20443;-79
2023/03/20 08:23:15;;;;;;;13.57;6.55;;;;;;;;;;5021927;28;20425;-79
2023/03/20 08:25:47;;;;;;;12.48;6.18;;;;;;;;;;5017814;28;20439;-78
2023/03/20 08:28:21;;;;;;;12.90;6.25;;;;;;;;;;4991756;28;20432;-79
2023/03/20 08:30:48;;;;;;;12.23;6.47;;;;;;;;;;4994955;28;20529;-79
2023/03/20 08:33:22;;;;;;;12.90;6.05;;;;;;;;;;5018205;28;20438;-79
2023/03/20 08:35:56;;;;;;;12.68;5.75;;;;;;;;;;5003222;28;20438;-79
2023/03/20 08:38:29;;;;;;;11.45;5.35;;;;;;;;;;5022322;28;20438;-79
2023/03/20 08:40:58;;;;;;;12.52;5.93;;;;;;;;;;5000096;28;20426;-79
2023/03/20 08:43:31;;;;;;;12.88;5.60;;;;;;;;;;5009516;28;21538;-79
2023/03/20 08:46:04;;;;;;;11.82;5.45;;;;;;;;;;5005770;28;20430;-79
2023/03/20 08:48:37;;;;;;;10.65;5.60;;;;;;;;;;5002903;28;21323;-79
2023/03/20 08:51:10;;;;;;;12.10;5.43;;;;;;;;;;5003032;28;20549;-78
2023/03/20 08:53:43;;;;;;;12.23;5.43;;;;;;;;;;5021646;28;20941;-78
2023/03/20 08:56:17;;;;;;;11.80;5.70;;;;;;;;;;5002716;28;21048;-78
2023/03/20 08:58:52;;;;;;;12.27;6.03;;;;;;;;;;5004257;28;20518;-79
2023/03/20 09:01:20;;;;;;;12.55;6.22;;;;;;;;;;4995756;28;20431;-79
2023/03/20 09:03:52;;;;;;;14.27;7.90;;;;;;;;;;5001922;28;20443;-79
2023/03/20 09:06:20;;;;;;;13.07;7.53;;;;;;;;;;5004992;28;20422;-79
2023/03/20 09:08:54;;;;;;;11.20;6.07;;;;;;;;;;5004606;28;20430;-79
2023/03/20 09:11:28;;;;;;;11.70;6.38;;;;;;;;;;5003515;28;20476;-78
2023/03/20 09:14:01;;;;;;;12.77;6.93;;;;;;;;;;5003092;28;20531;-78
2023/03/20 09:16:33;;;;;;;11.95;6.60;;;;;;;;;;5005695;28;21174;-79
2023/03/20 09:19:01;;;;;;;13.20;6.38;;;;;;;;;;4999621;28;20431;-79
2023/03/20 09:21:34;;;;;;;11.13;6.20;;;;;;;;;;5002333;28;20442;-80
2023/03/20 09:24:07;;;;;;;11.20;6.13;;;;;;;;;;5001638;28;21422;-80
2023/03/20 09:26:36;;;;;;;10.48;6.13;;;;;;;;;;5006012;28;20414;-82
2023/03/20 09:29:09;;;;;;;11.00;6.10;;;;;;;;;;5000486;28;20510;-80
2023/03/20 09:31:42;;;;;;;14.07;6.45;;;;;;;;;;5001691;28;21205;-80
2023/03/20 09:34:15;;;;;;;12.82;5.85;;;;;;;;;;5000714;28;20445;-80
2023/03/20 09:36:48;;;;;;;10.57;5.70;;;;;;;;;;5016840;28;20427;-79
2023/03/20 09:39:17;;;;;;;14.83;6.40;;;;;;;;;;4998860;28;20439;-80
2023/03/20 09:41:48;;;;;;;11.05;6.38;;;;;;;;;;5021777;28;20438;-79
2023/03/20 09:44:30;;;;;;;12.40;6.03;;;;;;;;;;5007965;28;20965;-79
2023/03/20 09:47:09;;;;;;;9.98;6.00;;;;;;;;;;5004944;28;20548;-80
2023/03/20 09:49:46;;;;;;;10.73;5.97;;;;;;;;;;5019305;28;20783;-82
2023/03/20 09:52:19;;;;;;;19.98;12.48;;;;;;;;;;5008001;28;20430;-80
2023/03/20 09:54:54;;;;;;;11.15;6.03;;;;;;;;;;5019186;28;20438;-80
2023/03/20 09:57:30;;;;;;;13.15;5.95;;;;;;;;;;4999750;28;21240;-80
2023/03/20 10:00:06;;;;;;;12.75;6.10;;;;;;;;;;5002758;28;20458;-79
2023/03/20 10:02:45;;;;;;;12.30;6.63;;;;;;;;;;4984705;28;20433;-80
2023/03/20 10:05:17;;;;;;;13.15;7.10;;;;;;;;;;4981082;28;20444;-79
2023/03/20 10:07:45;;;;;;;15.20;9.15;;;;;;;;;;4987234;28;20425;-79
2023/03/20 10:10:13;;;;;;;14.38;7.30;;;;;;;;;;4980646;28;20445;-79
2023/03/20 10:12:56;;;;;;;15.07;7.57;;;;;;;;;;4982885;28;20432;-79
2023/03/20 10:15:28;;;;;;;18.58;8.10;;;;;;;;;;4982922;28;21153;-79
2023/03/20 10:18:07;;;;;;;12.73;8.10;;;;;;;;;;4982041;28;20447;-79
2023/03/20 10:20:41;;;;;;;14.50;9.85;;;;;;;;;;4979046;28;20436;-79
2023/03/20 10:23:20;;;;;;;12.18;7.53;;;;;;;;;;4984814;28;20440;-80
2023/03/20 10:25:54;;;;;;;18.90;13.02;;;;;;;;;;4979260;28;20775;-80
2023/03/20 10:28:31;;;;;;;11.85;7.25;;;;;;;;;;4981863;28;20883;-79
2023/03/20 10:31:13;;;;;;;15.25;7.65;;;;;;;;;;4986614;28;20436;-79
2023/03/20 10:33:46;;;;;;;12.77;7.20;;;;;;;;;;4991006;28;20428;-80
2023/03/20 10:36:21;;;;;;;12.48;6.95;;;;;;;;;;4984273;28;20429;-79
2023/03/20 10:38:58;;;;;;;13.15;6.70;;;;;;;;;;4981963;28;20967;-80
2023/03/20 10:41:28;;;;;;;13.60;6.93;;;;;;;;;;4986173;28;20440;-79
2023/03/20 10:44:03;;;;;;;12.30;6.53;;;;;;;;;;4980908;28;20459;-79
2023/03/20 10:46:32;;;;;;;12.53;6.63;;;;;;;;;;4992871;28;20421;-79
2023/03/20 10:49:07;;;;;;;11.52;6.68;;;;;;;;;;4987369;28;20428;-80
2023/03/20 10:51:39;;;;;;;11.82;6.90;;;;;;;;;;4980147;28;20451;-79
2023/03/20 10:54:14;;;;;;;10.48;6.53;;;;;;;;;;4982832;28;20429;-80
2023/03/20 10:56:48;;;;;;;11.30;6.82;;;;;;;;;;4982848;28;20432;-79
2023/03/20 10:59:24;;;;;;;13.13;6.65;;;;;;;;;;4977777;28;22483;-79
2023/03/20 11:01:52;;;;;;;12.90;6.53;;;;;;;;;;4946343;28;20432;-80
2023/03/20 11:04:25;;;;;;;13.07;6.97;;;;;;;;;;4975457;28;20846;-79
2023/03/20 11:07:01;;;;;;;12.15;7.00;;;;;;;;;;4982165;28;20432;-79
2023/03/20 11:09:31;;;;;;;11.50;7.38;;;;;;;;;;4976106;28;21055;-79
2023/03/20 11:12:01;;;;;;;15.07;8.75;;;;;;;;;;4998467;28;20426;-80
2023/03/20 11:14:36;;;;;;;14.50;8.53;;;;;;;;;;4976093;28;20434;-79
2023/03/20 11:17:10;;;;;;;14.57;8.90;;;;;;;;;;4974268;28;20438;-79
2023/03/20 11:19:43;;;;;;;14.75;8.95;;;;;;;;;;4983144;28;20430;-79
2023/03/20 11:22:23;;;;;;;14.60;9.05;;;;;;;;;;4974975;28;20425;-79
2023/03/20 11:25:00;;;;;;;15.77;8.77;;;;;;;;;;4982438;28;21070;-80
2023/03/20 11:27:29;;;;;;;18.90;9.15;;;;;;;;;;4973379;28;20459;-79
2023/03/20 11:30:00;;;;;;;14.55;8.68;;;;;;;;;;4978818;28;20422;-80
2023/03/20 11:32:34;;;;;;;20.77;9.48;;;;;;;;;;4974204;28;20438;-79
2023/03/20 11:35:16;;;;;;;16.40;9.43;;;;;;;;;;4979293;28;20842;-80
2023/03/20 11:37:49;;;;;;;15.38;8.50;;;;;;;;;;4974840;28;20436;-80
2023/03/20 11:40:21;;;;;;;15.25;8.88;;;;;;;;;;4982058;28;20524;-80
2023/03/20 11:42:56;;;;;;;15.25;9.93;;;;;;;;;;4978314;28;20444;-80
2023/03/20 11:45:26;;;;;;;16.02;9.30;;;;;;;;;;4982291;28;20440;-79
2023/03/20 11:48:00;;;;;;;16.90;8.57;;;;;;;;;;4974823;28;20436;-81
2023/03/20 11:50:34;;;;;;;15.13;8.48;;;;;;;;;;4973592;28;20428;-80
2023/03/20 11:53:19;;;;;;;16.70;8.60;;;;;;;;;;4985925;28;20444;-80
2023/03/20 11:55:58;;;;;;;17.95;8.35;;;;;;;;;;4976488;28;20937;-79
2023/03/20 11:58:30;;;;;;;14.55;8.32;;;;;;;;;;4980317;28;20440;-79
2023/03/20 12:01:00;;;;;;;14.70;8.20;;;;;;;;;;4946902;28;20511;-79
2023/03/20 12:03:43;;;;;;;14.90;8.15;;;;;;;;;;4968758;28;22302;-79
2023/03/20 12:06:17;;;;;;;15.02;8.70;;;;;;;;;;4980125;28;20437;-79
2023/03/20 12:08:51;;;;;;;15.95;8.98;;;;;;;;;;4975595;28;20443;-80
2023/03/20 12:11:36;;;;;;;16.02;8.82;;;;;;;;;;4977246;28;20442;-79
2023/03/20 12:14:15;;;;;;;15.10;8.60;;;;;;;;;;4980605;28;20443;-79
2023/03/20 12:16:45;;;;;;;16.83;7.88;;;;;;;;;;4975853;28;21278;-80
2023/03/20 12:19:20;;;;;;;12.88;7.65;;;;;;;;;;4978779;28;20447;-80
2023/03/20 12:21:52;;;;;;;15.73;7.75;;;;;;;;;;4972741;28;20432;-80
2023/03/20 12:24:27;;;;;;;15.10;7.60;;;;;;;;;;4969437;28;20448;-79
2023/03/20 12:27:03;;;;;;;12.57;7.63;;;;;;;;;;4973470;28;20436;-79
2023/03/20 12:29:34;;;;;;;13.60;7.57;;;;;;;;;;4975722;28;20444;-79
2023/03/20 12:32:14;;;;;;;13.50;6.80;;;;;;;;;;4993553;28;20446;-79
2023/03/20 12:34:50;;;;;;;12.98;7.05;;;;;;;;;;4971626;28;20425;-79
2023/03/20 12:37:23;;;;;;;12.90;7.38;;;;;;;;;;4969063;28;20937;-79
2023/03/20 12:39:56;;;;;;;13.15;7.22;;;;;;;;;;4970119;28;20449;-79
2023/03/20 12:42:30;;;;;;;17.95;6.78;;;;;;;;;;4975692;28;20443;-79
2023/03/20 12:45:05;;;;;;;15.35;6.63;;;;;;;;;;4979028;28;20425;-79
2023/03/20 12:47:43;;;;;;;12.55;6.82;;;;;;;;;;4973823;28;20428;-79
2023/03/20 12:50:23;;;;;;;12.30;6.82;;;;;;;;;;4972468;28;22322;-79
2023/03/20 12:52:59;;;;;;;13.55;6.78;;;;;;;;;;4979739;28;20426;-79
2023/03/20 12:55:34;;;;;;;12.90;6.60;;;;;;;;;;4971335;28;22290;-79
2023/03/20 12:58:06;;;;;;;16.40;7.10;;;;;;;;;;4978061;28;20529;-80
2023/03/20 13:00:37;;;;;;;14.65;6.82;;;;;;;;;;4944845;28;20818;-81
2023/03/20 13:03:35;;;;;;;14.68;6.88;;;;;;;;;;4965550;28;20429;-79
2023/03/20 13:06:09;;;;;;;12.70;6.25;;;;;;;;;;4973396;28;21314;-79
2023/03/20 13:08:47;;;;;;;14.02;6.20;;;;;;;;;;4977269;28;20429;-79
2023/03/20 13:11:26;;;;;;;15.18;5.88;;;;;;;;;;4974942;28;20429;-79
2023/03/20 13:14:02;;;;;;;13.68;5.90;;;;;;;;;;4971026;28;20442;-79
2023/03/20 13:16:41;;;;;;;11.20;5.70;;;;;;;;;;4974613;28;20441;-79
2023/03/20 13:19:14;;;;;;;12.57;5.90;;;;;;;;;;4971358;28;20905;-79
2023/03/20 13:21:46;;;;;;;10.57;5.80;;;;;;;;;;4963915;28;22227;-79
2023/03/20 13:24:24;;;;;;;11.32;5.57;;;;;;;;;;4974592;28;20540;-79
2023/03/20 13:27:00;;;;;;;11.63;5.40;;;;;;;;;;4980478;28;20430;-79
2023/03/20 13:29:30;;;;;;;10.90;5.28;;;;;;;;;;4987409;28;20428;-79
2023/03/20 13:32:03;;;;;;;11.55;5.28;;;;;;;;;;4979367;28;20436;-79
2023/03/20 13:34:48;;;;;;;12.00;5.00;;;;;;;;;;4978659;28;20430;-79
2023/03/20 13:37:25;;;;;;;12.45;5.00;;;;;;;;;;4978627;28;20442;-79
2023/03/20 13:39:59;;;;;;;10.48;4.88;;;;;;;;;;4976831;28;21693;-79
2023/03/20 13:42:34;;;;;;;11.20;5.10;;;;;;;;;;4979518;28;20437;-79
2023/03/20 13:45:14;;;;;;;9.68;4.88;;;;;;;;;;4984030;28;20436;-79
2023/03/20 13:47:45;;;;;;;10.35;4.47;;;;;;;;;;4981010;28;20431;-79
2023/03/20 13:50:23;;;;;;;12.23;4.90;;;;;;;;;;4982277;28;20428;-79
2023/03/20 13:52:54;;;;;;;10.32;4.78;;;;;;;;;;4987196;28;20632;-79
2023/03/20 13:55:29;;;;;;;11.73;4.40;;;;;;;;;;4977165;28;20437;-79
2023/03/20 13:58:10;;;;;;;9.93;4.90;;;;;;;;;;4976465;28;20440;-79
2023/03/20 14:00:48;;;;;;;9.55;4.35;;;;;;;;;;4955071;28;20429;-79
2023/03/20 14:03:24;;;;;;;10.40;4.50;;;;;;;;;;4973756;28;21145;-80
2023/03/20 14:05:54;;;;;;;10.68;4.50;;;;;;;;;;4974012;28;21213;-80
2023/03/20 14:08:35;;;;;;;13.13;4.80;;;;;;;;;;4977013;28;20431;-79
2023/03/20 14:11:22;;;;;;;12.70;5.05;;;;;;;;;;4979649;28;20434;-79
2023/03/20 14:13:51;;;;;;;10.73;4.70;;;;;;;;;;4966573;28;20430;-79
2023/03/20 14:16:27;;;;;;;9.27;4.78;;;;;;;;;;4987425;28;20461;-79
2023/03/20 14:19:05;;;;;;;11.85;5.10;;;;;;;;;;4984698;28;20430;-81
2023/03/20 14:21:39;;;;;;;9.13;4.75;;;;;;;;;;4983026;28;20434;-79
2023/03/20 14:24:14;;;;;;;10.63;5.15;;;;;;;;;;4982510;28;20847;-79
2023/03/20 14:26:49;;;;;;;10.20;4.93;;;;;;;;;;4973666;28;20437;-80
2023/03/20 14:29:31;;;;;;;12.03;5.40;;;;;;;;;;4995702;28;21250;-80
2023/03/20 14:32:25;;;;;;;10.98;5.25;;;;;;;;;;4976457;28;20978;-79
2023/03/20 14:35:19;;;;;;;11.90;4.95;;;;;;;;;;4980133;28;20439;-79
2023/03/20 14:38:09;;;;;;;13.50;5.38;;;;;;;;;;4975109;28;20445;-79
2023/03/20 14:40:47;;;;;;;9.77;5.07;;;;;;;;;;4980024;28;21768;-79
2023/03/20 14:43:25;;;;;;;10.13;5.07;;;;;;;;;;4982051;28;20896;-80
2023/03/20 14:45:57;;;;;;;10.47;4.90;;;;;;;;;;4983049;28;20441;-79
2023/03/20 14:48:32;;;;;;;10.43;5.05;;;;;;;;;;4976640;28;20426;-78
2023/03/20 14:51:09;;;;;;;11.45;5.13;;;;;;;;;;4975654;28;20435;-79
2023/03/20 14:53:39;;;;;;;11.82;5.00;;;;;;;;;;4976934;28;20444;-79
2023/03/20 14:56:09;;;;;;;11.65;5.25;;;;;;;;;;4979004;28;20467;-79
2023/03/20 14:58:53;;;;;;;10.38;4.97;;;;;;;;;;4979661;28;20434;-79
2023/03/20 15:01:40;;;;;;;12.27;5.28;;;;;;;;;;4948657;28;20446;-80
2023/03/20 15:04:20;;;;;;;11.07;5.13;;;;;;;;;;4977412;28;20976;-80
2023/03/20 15:06:56;;;;;;;12.13;5.50;;;;;;;;;;4980639;28;21809;-80
2023/03/20 15:09:32;;;;;;;9.93;4.88;;;;;;;;;;4994166;28;20440;-81
2023/03/20 15:12:06;;;;;;;10.00;5.20;;;;;;;;;;4971767;28;20726;-80
2023/03/20 15:14:38;;;;;;;11.15;5.32;;;;;;;;;;4982600;28;20520;-80